Terminal Aerodrome Forecast
Issued by NWS

Home | Current Version | Previous Version | Graphics & Text | Print | Product List | Glossary On
Versions: 1 2 3 4 5 6 7 8 9 10 11 12 13 14 15 16 17 18 19 20 21 22
000
FTUS44 KLZK 051140
TAFLIT
TAF
KLIT 051140Z 0512/0612 02004KT P6SM VCFG SCT015
      TEMPO 0512/0515 3SM BR BKN015
     FM051500 09004KT P6SM VCSH SCT025 BKN250
     FM052000 08008KT 5SM -RA BR BKN015 OVC025
     FM060000 07004KT 4SM -RA BR BKN007 OVC015
     FM060600 VRB03KT 2SM -DZ BR OVC005=

USA.gov is the U.S. government's official web portal to all federal, state and local government web resources and services.